Time;durP1;ratioP1;P1;durP2;ratioP2;P2;SDS_P1;SDS_P2;PMS_P1;PMS_P2;Temp;Humidity;BMP_temperature;BMP_pressure;BME280_temperature;BME280_humidity;BME280_pressure;Samples;Min_cycle;Max_cycle;Signal;HPM_P1;HPM_P2
2022/06/21 00:01:24;;;;;;;6.77;2.50;;;;;;;;;;4975520;28;20231;-74
2022/06/21 00:03:50;;;;;;;10.07;2.60;;;;;;;;;;4987778;28;20647;-74
2022/06/21 00:06:19;;;;;;;9.97;2.77;;;;;;;;;;5003130;28;20219;-74
2022/06/21 00:08:45;;;;;;;8.47;3.00;;;;;;;;;;4989396;28;20366;-75
2022/06/21 00:11:20;;;;;;;7.23;2.43;;;;;;;;;;4988363;28;20718;-75
2022/06/21 00:13:48;;;;;;;7.83;2.03;;;;;;;;;;4994665;28;20228;-75
2022/06/21 00:16:13;;;;;;;5.20;2.43;;;;;;;;;;4988010;28;20222;-75
2022/06/21 00:18:46;;;;;;;8.80;2.70;;;;;;;;;;4983900;28;20719;-75
2022/06/21 00:21:17;;;;;;;8.67;2.70;;;;;;;;;;4991231;28;20232;-72
2022/06/21 00:23:43;;;;;;;7.50;2.60;;;;;;;;;;4989160;28;20384;-74
2022/06/21 00:26:12;;;;;;;8.40;2.70;;;;;;;;;;5004876;28;20221;-72
2022/06/21 00:28:38;;;;;;;7.33;2.50;;;;;;;;;;4981034;28;20738;-73
2022/06/21 00:31:06;;;;;;;12.93;2.37;;;;;;;;;;4975050;28;20221;-74
2022/06/21 00:33:34;;;;;;;13.90;3.00;;;;;;;;;;4975187;28;20711;-75
2022/06/21 00:36:07;;;;;;;8.47;2.33;;;;;;;;;;4983422;28;20252;-71
2022/06/21 00:38:33;;;;;;;8.43;2.63;;;;;;;;;;5002259;28;20228;-76
2022/06/21 00:41:01;;;;;;;7.03;2.50;;;;;;;;;;4988298;28;20658;-73
2022/06/21 00:43:31;;;;;;;11.73;3.07;;;;;;;;;;4988532;28;20233;-72
2022/06/21 00:45:59;;;;;;;7.10;2.13;;;;;;;;;;5005067;28;20231;-74
2022/06/21 00:48:35;;;;;;;7.70;2.90;;;;;;;;;;4973117;28;20758;-73
2022/06/21 00:51:10;;;;;;;10.10;2.90;;;;;;;;;;4989005;28;20730;-75
2022/06/21 00:53:43;;;;;;;9.53;3.20;;;;;;;;;;4989549;28;20679;-76
2022/06/21 00:56:27;;;;;;;6.93;2.40;;;;;;;;;;4973652;28;20251;-74
2022/06/21 00:58:53;;;;;;;10.47;2.87;;;;;;;;;;4988388;28;20824;-74
2022/06/21 01:01:30;;;;;;;9.77;2.53;;;;;;;;;;4984633;28;20225;-77
2022/06/21 01:04:04;;;;;;;9.07;2.70;;;;;;;;;;4985020;28;20221;-76
2022/06/21 01:06:33;;;;;;;11.90;3.03;;;;;;;;;;4986640;28;20235;-76
2022/06/21 01:09:01;;;;;;;10.57;2.80;;;;;;;;;;4984450;28;20255;-76
2022/06/21 01:11:34;;;;;;;12.73;3.40;;;;;;;;;;4971658;28;20298;-73
2022/06/21 01:14:02;;;;;;;10.97;3.20;;;;;;;;;;4990900;28;20228;-72
2022/06/21 01:16:28;;;;;;;12.20;2.70;;;;;;;;;;4972890;28;20231;-72
2022/06/21 01:18:53;;;;;;;9.20;3.03;;;;;;;;;;5000569;28;20970;-72
2022/06/21 01:21:23;;;;;;;8.63;2.83;;;;;;;;;;4985802;28;20233;-74
2022/06/21 01:23:58;;;;;;;8.27;2.73;;;;;;;;;;4973239;28;20225;-73
2022/06/21 01:26:42;;;;;;;12.30;2.77;;;;;;;;;;4994988;28;20302;-72
2022/06/21 01:29:13;;;;;;;11.23;2.90;;;;;;;;;;4980524;28;20798;-72
2022/06/21 01:31:39;;;;;;;10.33;3.07;;;;;;;;;;4986713;28;20332;-72
2022/06/21 01:34:09;;;;;;;12.33;3.10;;;;;;;;;;4986541;28;20236;-71
2022/06/21 01:36:42;;;;;;;10.77;2.93;;;;;;;;;;4983249;28;20750;-75
2022/06/21 01:39:19;;;;;;;14.23;3.17;;;;;;;;;;4990128;28;20221;-75
2022/06/21 01:42:12;;;;;;;10.93;3.20;;;;;;;;;;4995618;28;20232;-72
2022/06/21 01:44:44;;;;;;;13.63;3.00;;;;;;;;;;4980187;28;20232;-74
2022/06/21 01:47:13;;;;;;;11.90;3.20;;;;;;;;;;4989258;28;20297;-75
2022/06/21 01:49:42;;;;;;;8.70;2.90;;;;;;;;;;4985739;28;20256;-72
2022/06/21 01:52:18;;;;;;;8.40;2.77;;;;;;;;;;4990361;28;20236;-74
2022/06/21 01:54:49;;;;;;;10.23;2.70;;;;;;;;;;5024493;23;20783;-80
2022/06/21 01:57:15;;;;;;;12.63;3.43;;;;;;;;;;4998923;28;20715;-81
2022/06/21 01:59:45;;;;;;;9.67;2.70;;;;;;;;;;5007081;28;20228;-81
2022/06/21 02:02:16;;;;;;;10.87;3.13;;;;;;;;;;4992244;28;20768;-81
2022/06/21 02:05:07;;;;;;;12.73;3.20;;;;;;;;;;4968997;28;20220;-80
2022/06/21 02:07:40;;;;;;;9.13;2.83;;;;;;;;;;5013967;28;20319;-81
2022/06/21 02:10:11;;;;;;;11.30;3.50;;;;;;;;;;4992937;28;20232;-79
2022/06/21 02:12:41;;;;;;;11.33;3.33;;;;;;;;;;4982135;28;20243;-79
2022/06/21 02:15:17;;;;;;;9.33;3.00;;;;;;;;;;4973204;28;20232;-78
2022/06/21 02:17:45;;;;;;;14.20;3.60;;;;;;;;;;4954543;28;20229;-80
2022/06/21 02:20:17;;;;;;;8.20;3.27;;;;;;;;;;4970341;28;20217;-79
2022/06/21 02:22:45;;;;;;;12.07;3.60;;;;;;;;;;5000163;28;20264;-79
2022/06/21 02:25:19;;;;;;;10.50;3.37;;;;;;;;;;4999253;28;20548;-80
2022/06/21 02:27:47;;;;;;;13.80;3.37;;;;;;;;;;4972521;28;20311;-79
2022/06/21 02:30:18;;;;;;;9.90;3.37;;;;;;;;;;4949036;28;20233;-80
2022/06/21 02:32:56;;;;;;;12.33;3.80;;;;;;;;;;5003346;28;20295;-80
2022/06/21 02:35:40;;;;;;;12.03;3.10;;;;;;;;;;4974523;28;21204;-81
2022/06/21 02:38:16;;;;;;;10.73;3.07;;;;;;;;;;4986107;28;20233;-81
2022/06/21 02:40:44;;;;;;;11.40;3.50;;;;;;;;;;4994459;28;20224;-81
2022/06/21 02:43:16;;;;;;;11.80;3.27;;;;;;;;;;4971297;28;20271;-80
2022/06/21 02:45:55;;;;;;;11.20;3.20;;;;;;;;;;5000292;28;20256;-81
2022/06/21 02:48:35;;;;;;;10.60;3.50;;;;;;;;;;5007399;28;20229;-82
2022/06/21 02:51:08;;;;;;;12.37;3.40;;;;;;;;;;4972165;28;20229;-80
2022/06/21 02:54:00;;;;;;;9.57;3.30;;;;;;;;;;5008903;28;20252;-80
2022/06/21 02:56:37;;;;;;;10.37;3.40;;;;;;;;;;5024364;28;20256;-81
2022/06/21 02:59:08;;;;;;;10.47;2.97;;;;;;;;;;4963901;28;20228;-80
2022/06/21 03:01:48;;;;;;;8.97;2.90;;;;;;;;;;5005021;28;20228;-81
2022/06/21 03:04:18;;;;;;;13.00;3.30;;;;;;;;;;4953718;28;20232;-81
2022/06/21 03:06:44;;;;;;;11.17;3.43;;;;;;;;;;4990254;28;20225;-82
2022/06/21 03:09:16;;;;;;;10.37;3.63;;;;;;;;;;4986682;28;20240;-81
2022/06/21 03:11:43;;;;;;;9.17;3.60;;;;;;;;;;5004645;28;20221;-79
2022/06/21 03:14:13;;;;;;;14.33;3.50;;;;;;;;;;4985334;28;20356;-79
2022/06/21 03:16:41;;;;;;;10.17;3.23;;;;;;;;;;5002578;28;20709;-79
2022/06/21 03:19:23;;;;;;;11.77;3.70;;;;;;;;;;4969549;28;20610;-79
2022/06/21 03:21:49;;;;;;;16.77;3.70;;;;;;;;;;4970613;28;20639;-82
2022/06/21 03:24:20;;;;;;;12.00;3.40;;;;;;;;;;4984544;28;20217;-82
2022/06/21 03:27:28;;;;;;;11.17;3.13;;;;;;;;;;4967006;28;20236;-82
2022/06/21 03:29:59;;;;;;;11.83;3.90;;;;;;;;;;4901613;29;20291;-82
2022/06/21 03:32:29;;;;;;;9.10;3.03;;;;;;;;;;4924803;29;20263;-80
2022/06/21 03:34:55;;;;;;;8.20;3.10;;;;;;;;;;4956267;28;20237;-81
2022/06/21 03:37:23;;;;;;;10.60;3.27;;;;;;;;;;4993508;28;20231;-81
2022/06/21 03:42:34;;;;;;;13.23;3.20;;;;;;;;;;5005937;28;20308;-81
2022/06/21 03:45:19;;;;;;;9.10;3.30;;;;;;;;;;4982046;28;20259;-80
2022/06/21 03:47:51;;;;;;;8.00;3.30;;;;;;;;;;4982477;28;20229;-79
2022/06/21 03:50:20;;;;;;;11.10;3.27;;;;;;;;;;4994762;28;20220;-79
2022/06/21 03:53:08;;;;;;;10.87;3.40;;;;;;;;;;4959663;23;20237;-77
2022/06/21 03:55:36;;;;;;;7.33;3.17;;;;;;;;;;4947332;28;20398;-75
2022/06/21 03:58:09;;;;;;;12.10;3.50;;;;;;;;;;4967748;28;20724;-75
2022/06/21 04:00:49;;;;;;;9.93;3.37;;;;;;;;;;4965190;28;20628;-74
2022/06/21 04:03:36;;;;;;;9.30;3.20;;;;;;;;;;4940352;28;20888;-77
2022/06/21 04:06:05;;;;;;;7.93;3.00;;;;;;;;;;4934046;28;20266;-77
2022/06/21 04:08:42;;;;;;;11.13;3.50;;;;;;;;;;4954196;28;20245;-77
2022/06/21 04:11:14;;;;;;;11.97;3.10;;;;;;;;;;4950991;28;20229;-74
2022/06/21 04:14:17;;;;;;;11.67;3.47;;;;;;;;;;4938165;28;20233;-77
2022/06/21 04:16:53;;;;;;;12.50;3.20;;;;;;;;;;4950590;28;20715;-75
2022/06/21 04:19:28;;;;;;;14.07;3.60;;;;;;;;;;4934707;28;20229;-74
2022/06/21 04:22:02;;;;;;;10.77;2.87;;;;;;;;;;4936123;28;20213;-78
2022/06/21 04:24:46;;;;;;;11.40;3.37;;;;;;;;;;4951533;28;20234;-74
2022/06/21 04:27:32;;;;;;;8.20;3.17;;;;;;;;;;4939170;28;20226;-76
2022/06/21 04:30:05;;;;;;;12.03;3.47;;;;;;;;;;4952315;28;20295;-74
2022/06/21 04:32:46;;;;;;;13.97;3.20;;;;;;;;;;4934127;28;21033;-76
2022/06/21 04:35:22;;;;;;;9.13;2.77;;;;;;;;;;4949156;28;20246;-74
2022/06/21 04:38:01;;;;;;;12.07;3.03;;;;;;;;;;4954497;28;20230;-74
2022/06/21 04:40:33;;;;;;;13.47;3.50;;;;;;;;;;4970956;28;20313;-73
2022/06/21 04:43:04;;;;;;;6.70;2.63;;;;;;;;;;4950814;28;20230;-73
2022/06/21 04:45:46;;;;;;;13.77;3.47;;;;;;;;;;4968584;28;20226;-71
2022/06/21 04:48:32;;;;;;;9.70;3.23;;;;;;;;;;4968799;28;20237;-71
2022/06/21 04:51:12;;;;;;;10.60;3.17;;;;;;;;;;4932151;28;20230;-70
2022/06/21 04:53:50;;;;;;;7.73;2.93;;;;;;;;;;4939112;28;20284;-70
2022/06/21 04:56:23;;;;;;;13.20;3.10;;;;;;;;;;4923295;28;20221;-74
2022/06/21 04:58:51;;;;;;;10.13;3.10;;;;;;;;;;4934328;28;20284;-73
2022/06/21 05:01:30;;;;;;;11.47;3.13;;;;;;;;;;4966011;28;20214;-74
2022/06/21 05:04:02;;;;;;;9.10;2.93;;;;;;;;;;4952119;28;20218;-75
2022/06/21 05:06:27;;;;;;;9.00;3.07;;;;;;;;;;4947400;28;20230;-76
2022/06/21 05:08:57;;;;;;;8.27;2.77;;;;;;;;;;4966711;28;20226;-74
2022/06/21 05:11:27;;;;;;;9.70;2.93;;;;;;;;;;4950503;28;20226;-74
2022/06/21 05:13:54;;;;;;;11.13;2.80;;;;;;;;;;4954201;28;20292;-76
2022/06/21 05:16:21;;;;;;;8.70;3.60;;;;;;;;;;4947023;28;20337;-75
2022/06/21 05:19:12;;;;;;;10.90;3.33;;;;;;;;;;4940837;28;20232;-75
2022/06/21 05:21:48;;;;;;;9.00;2.80;;;;;;;;;;4934154;28;20321;-75
2022/06/21 05:24:13;;;;;;;12.70;3.40;;;;;;;;;;4939960;28;20225;-77
2022/06/21 05:26:58;;;;;;;10.43;2.87;;;;;;;;;;4954862;28;20222;-75
2022/06/21 05:29:31;;;;;;;6.97;2.70;;;;;;;;;;4957917;28;20226;-74
2022/06/21 05:32:00;;;;;;;9.13;2.40;;;;;;;;;;4954144;28;20309;-73
2022/06/21 05:34:31;;;;;;;9.17;2.57;;;;;;;;;;4955336;28;20245;-73
2022/06/21 05:37:01;;;;;;;9.10;2.77;;;;;;;;;;4954980;28;20221;-76
2022/06/21 05:39:44;;;;;;;10.10;2.80;;;;;;;;;;4934317;28;20226;-74
2022/06/21 05:42:14;;;;;;;10.77;3.00;;;;;;;;;;4955678;28;20234;-75
2022/06/21 05:44:54;;;;;;;10.43;2.53;;;;;;;;;;4954517;28;20229;-73
2022/06/21 05:47:35;;;;;;;8.83;2.37;;;;;;;;;;4955877;28;20597;-74
2022/06/21 05:50:02;;;;;;;8.25;2.97;;;;;;;;;;4932205;28;20234;-73
2022/06/21 05:52:33;;;;;;;12.07;3.10;;;;;;;;;;4919458;28;20237;-77
2022/06/21 05:55:12;;;;;;;7.30;2.87;;;;;;;;;;4956611;28;20277;-74
2022/06/21 05:57:42;;;;;;;9.83;3.23;;;;;;;;;;4967461;28;20285;-74
2022/06/21 06:00:39;;;;;;;10.80;3.20;;;;;;;;;;4954180;28;20225;-74
2022/06/21 06:03:19;;;;;;;11.20;3.07;;;;;;;;;;4970257;28;20308;-74
2022/06/21 06:05:45;;;;;;;14.27;3.20;;;;;;;;;;4954560;28;20237;-75
2022/06/21 06:08:24;;;;;;;13.50;2.93;;;;;;;;;;4968511;28;20222;-74
2022/06/21 06:10:52;;;;;;;9.60;2.70;;;;;;;;;;4958764;28;20237;-75
2022/06/21 06:13:29;;;;;;;8.00;2.90;;;;;;;;;;4953862;28;20218;-74
2022/06/21 06:16:00;;;;;;;14.20;3.13;;;;;;;;;;4928634;28;20324;-74
2022/06/21 06:18:55;;;;;;;12.00;3.33;;;;;;;;;;4951819;28;20230;-74
2022/06/21 06:21:25;;;;;;;14.47;3.73;;;;;;;;;;4966409;28;20233;-76
2022/06/21 06:24:15;;;;;;;12.00;2.90;;;;;;;;;;4955868;28;20210;-76
2022/06/21 06:26:47;;;;;;;8.67;2.63;;;;;;;;;;4923564;28;20226;-77
2022/06/21 06:29:17;;;;;;;9.90;3.20;;;;;;;;;;4971138;28;20222;-76
2022/06/21 06:32:01;;;;;;;10.17;3.20;;;;;;;;;;4952538;28;20230;-75
2022/06/21 06:34:42;;;;;;;6.67;2.70;;;;;;;;;;4928811;28;20237;-75
2022/06/21 06:37:30;;;;;;;13.73;3.40;;;;;;;;;;4968876;28;20248;-77
2022/06/21 06:39:56;;;;;;;10.50;3.10;;;;;;;;;;4938988;28;20226;-77
2022/06/21 06:42:27;;;;;;;13.07;2.87;;;;;;;;;;4937571;28;20222;-77
2022/06/21 06:44:57;;;;;;;8.63;3.17;;;;;;;;;;4971529;28;20244;-78
2022/06/21 06:47:30;;;;;;;9.90;2.70;;;;;;;;;;4957979;28;20230;-78
2022/06/21 06:49:59;;;;;;;10.93;2.77;;;;;;;;;;4956454;28;20230;-78
2022/06/21 06:52:35;;;;;;;13.67;2.90;;;;;;;;;;4939793;28;20280;-78
2022/06/21 06:55:23;;;;;;;7.53;2.73;;;;;;;;;;4941201;28;20249;-77
2022/06/21 06:58:05;;;;;;;11.60;2.83;;;;;;;;;;4953891;28;20238;-77
2022/06/21 07:00:41;;;;;;;11.53;2.80;;;;;;;;;;4970714;28;20281;-77
2022/06/21 07:03:18;;;;;;;7.28;2.70;;;;;;;;;;4953984;28;20292;-78
2022/06/21 07:05:52;;;;;;;8.52;2.83;;;;;;;;;;4941690;28;20230;-78
2022/06/21 07:08:33;;;;;;;10.60;2.92;;;;;;;;;;4967129;28;20225;-71
2022/06/21 07:11:02;;;;;;;8.48;2.80;;;;;;;;;;4969600;28;20256;-73
2022/06/21 07:13:30;;;;;;;9.07;2.67;;;;;;;;;;4966999;28;20609;-73
2022/06/21 07:16:02;;;;;;;8.07;2.70;;;;;;;;;;4953923;28;20312;-75
2022/06/21 07:18:30;;;;;;;7.67;2.77;;;;;;;;;;4920881;28;20309;-74
2022/06/21 07:20:56;;;;;;;8.63;2.67;;;;;;;;;;4952711;28;20348;-73
2022/06/21 07:23:23;;;;;;;6.38;2.70;;;;;;;;;;4952756;28;20699;-73
2022/06/21 07:25:59;;;;;;;8.82;2.78;;;;;;;;;;4939715;28;20238;-74
2022/06/21 07:28:44;;;;;;;9.27;2.60;;;;;;;;;;4950705;28;20230;-74
2022/06/21 07:31:33;;;;;;;7.18;2.38;;;;;;;;;;4955002;28;20234;-75
2022/06/21 07:34:01;;;;;;;9.88;2.30;;;;;;;;;;4934440;28;20321;-75
2022/06/21 07:36:31;;;;;;;8.50;2.22;;;;;;;;;;4966562;28;20259;-75
2022/06/21 07:39:05;;;;;;;6.68;2.15;;;;;;;;;;4936240;28;20248;-75
2022/06/21 07:42:11;;;;;;;6.80;2.17;;;;;;;;;;4933678;28;20245;-75
2022/06/21 07:45:14;;;;;;;8.07;2.55;;;;;;;;;;4878446;29;20311;-74
2022/06/21 07:47:45;;;;;;;8.82;2.67;;;;;;;;;;4967293;28;20384;-74
2022/06/21 07:50:37;;;;;;;8.90;2.35;;;;;;;;;;4938572;28;20305;-73
2022/06/21 07:53:29;;;;;;;7.07;2.35;;;;;;;;;;4936468;28;20708;-73
2022/06/21 07:56:07;;;;;;;6.95;2.40;;;;;;;;;;4940546;28;20268;-73
2022/06/21 07:58:57;;;;;;;7.72;2.13;;;;;;;;;;4966804;28;20596;-73
2022/06/21 08:07:22;;;;;;;3.97;1.50;;;;;;;;;;4954729;28;20257;-73
2022/06/21 08:09:47;;;;;;;4.07;1.75;;;;;;;;;;4952525;28;20250;-73
2022/06/21 08:12:13;;;;;;;7.97;2.00;;;;;;;;;;4968182;28;20308;-75
2022/06/21 08:14:38;;;;;;;6.03;2.10;;;;;;;;;;4956045;28;20233;-73
2022/06/21 08:17:16;;;;;;;7.25;1.88;;;;;;;;;;4967956;28;20223;-72
2022/06/21 08:19:55;;;;;;;6.57;1.88;;;;;;;;;;4968551;28;20540;-72
2022/06/21 08:22:32;;;;;;;5.13;1.73;;;;;;;;;;4967648;28;20229;-69
2022/06/21 08:25:22;;;;;;;6.63;1.83;;;;;;;;;;4951816;28;20312;-70
2022/06/21 08:27:52;;;;;;;4.22;1.25;;;;;;;;;;4968157;28;20799;-70
2022/06/21 08:30:23;;;;;;;5.93;1.85;;;;;;;;;;4951259;28;20225;-70
2022/06/21 08:33:15;;;;;;;8.85;2.10;;;;;;;;;;4953104;28;20438;-72
2022/06/21 08:35:50;;;;;;;5.65;2.08;;;;;;;;;;4918711;28;20253;-73
2022/06/21 08:39:00;;;;;;;5.85;1.88;;;;;;;;;;4949542;28;20225;-75
2022/06/21 08:41:55;;;;;;;5.63;1.90;;;;;;;;;;4943290;28;20262;-72
2022/06/21 08:44:35;;;;;;;6.13;1.50;;;;;;;;;;4953115;28;20226;-74
2022/06/21 08:47:21;;;;;;;5.43;1.60;;;;;;;;;;4967572;28;20242;-73
2022/06/21 08:50:00;;;;;;;5.40;1.70;;;;;;;;;;4968264;28;20790;-72
2022/06/21 08:52:35;;;;;;;6.30;2.10;;;;;;;;;;4948546;28;20252;-74
2022/06/21 08:55:26;;;;;;;4.35;1.73;;;;;;;;;;4947198;28;20750;-74
2022/06/21 08:58:59;;;;;;;4.60;1.77;;;;;;;;;;4952589;28;20225;-76
2022/06/21 09:01:41;;;;;;;6.90;2.05;;;;;;;;;;4862948;29;20317;-75
2022/06/21 09:04:43;;;;;;;7.40;1.80;;;;;;;;;;4877391;29;20236;-75
2022/06/21 09:07:30;;;;;;;6.82;1.80;;;;;;;;;;4971904;28;20287;-75
2022/06/21 09:10:15;;;;;;;5.45;1.55;;;;;;;;;;4972351;28;20222;-77
2022/06/21 09:13:08;;;;;;;5.22;1.65;;;;;;;;;;4966482;28;20218;-74
2022/06/21 09:15:46;;;;;;;5.15;1.60;;;;;;;;;;4968089;28;20334;-75
2022/06/21 09:18:30;;;;;;;5.32;1.88;;;;;;;;;;4946987;28;21140;-73
2022/06/21 09:21:47;;;;;;;6.88;1.95;;;;;;;;;;4969489;28;20299;-73
2022/06/21 09:24:35;;;;;;;6.22;1.77;;;;;;;;;;4907505;29;20242;-72
2022/06/21 09:27:14;;;;;;;3.47;1.38;;;;;;;;;;4926108;29;20223;-73
2022/06/21 09:30:04;;;;;;;29.20;3.13;;;;;;;;;;4925951;28;20240;-73
2022/06/21 09:32:50;;;;;;;5.32;1.60;;;;;;;;;;4967047;28;20233;-72
2022/06/21 09:36:02;;;;;;;5.18;1.67;;;;;;;;;;4964201;28;21084;-72
2022/06/21 09:38:39;;;;;;;6.53;1.98;;;;;;;;;;4950952;28;20242;-74
2022/06/21 09:41:17;;;;;;;4.32;1.65;;;;;;;;;;4950830;28;20251;-72
2022/06/21 09:44:01;;;;;;;5.57;1.85;;;;;;;;;;4970168;28;20221;-74
2022/06/21 09:46:39;;;;;;;4.22;1.60;;;;;;;;;;4968093;28;20279;-71
2022/06/21 09:49:16;;;;;;;4.05;1.73;;;;;;;;;;4965924;28;20300;-73
2022/06/21 09:51:56;;;;;;;4.55;1.60;;;;;;;;;;4966523;28;20348;-73
2022/06/21 09:54:35;;;;;;;4.65;1.60;;;;;;;;;;4947547;28;20695;-73
2022/06/21 09:57:31;;;;;;;3.03;1.45;;;;;;;;;;4949729;28;20234;-73
2022/06/21 10:00:22;;;;;;;6.97;1.58;;;;;;;;;;4966790;28;20278;-73
2022/06/21 10:03:24;;;;;;;5.20;1.40;;;;;;;;;;4934356;28;20218;-71
2022/06/21 10:05:54;;;;;;;6.40;1.52;;;;;;;;;;4893582;29;20227;-74
2022/06/21 10:08:41;;;;;;;5.15;1.38;;;;;;;;;;4943743;28;20248;-73
2022/06/21 10:11:30;;;;;;;4.55;1.55;;;;;;;;;;4967861;28;20230;-73
2022/06/21 10:14:07;;;;;;;3.97;1.65;;;;;;;;;;4972769;28;20236;-74
2022/06/21 10:16:49;;;;;;;4.93;1.75;;;;;;;;;;4938366;28;20677;-72
2022/06/21 10:19:35;;;;;;;3.90;1.52;;;;;;;;;;4939984;28;20233;-72
2022/06/21 10:22:10;;;;;;;4.63;1.50;;;;;;;;;;4952932;28;20619;-75
2022/06/21 10:24:51;;;;;;;4.22;1.52;;;;;;;;;;4972238;28;20261;-75
2022/06/21 10:27:38;;;;;;;6.10;1.52;;;;;;;;;;4940332;28;20592;-72
2022/06/21 10:30:22;;;;;;;3.38;1.30;;;;;;;;;;4937246;28;20242;-73
2022/06/21 10:32:54;;;;;;;3.70;1.48;;;;;;;;;;4971312;28;20230;-73
2022/06/21 10:35:41;;;;;;;5.90;1.88;;;;;;;;;;4954504;28;20265;-73
2022/06/21 10:38:34;;;;;;;2.85;1.13;;;;;;;;;;4957432;28;20268;-74
2022/06/21 10:41:22;;;;;;;3.83;1.35;;;;;;;;;;4970782;28;21049;-75
2022/06/21 10:44:08;;;;;;;4.57;1.33;;;;;;;;;;4957864;28;20265;-73
2022/06/21 10:46:44;;;;;;;4.15;1.60;;;;;;;;;;4969412;28;20270;-73
2022/06/21 10:49:28;;;;;;;4.47;1.65;;;;;;;;;;4938916;28;20234;-73
2022/06/21 10:52:12;;;;;;;5.60;1.48;;;;;;;;;;4951906;28;20360;-73
2022/06/21 10:55:01;;;;;;;3.75;1.67;;;;;;;;;;4969274;28;20904;-73
2022/06/21 10:57:49;;;;;;;6.28;1.60;;;;;;;;;;4967138;28;21089;-72
2022/06/21 11:03:14;;;;;;;3.67;1.48;;;;;;;;;;4950798;28;20218;-73
2022/06/21 11:06:06;;;;;;;5.03;1.55;;;;;;;;;;4967821;28;20815;-72
2022/06/21 11:08:37;;;;;;;6.60;1.45;;;;;;;;;;4967394;28;20230;-74
2022/06/21 11:11:17;;;;;;;4.50;1.45;;;;;;;;;;4968479;28;20325;-73
2022/06/21 11:14:01;;;;;;;3.13;1.42;;;;;;;;;;4968341;28;20312;-74
2022/06/21 11:16:46;;;;;;;3.85;1.23;;;;;;;;;;4953981;28;20218;-74
2022/06/21 11:19:36;;;;;;;6.70;1.45;;;;;;;;;;4966266;28;20317;-73
2022/06/21 11:22:11;;;;;;;4.47;1.55;;;;;;;;;;4953469;28;20236;-73
2022/06/21 11:25:05;;;;;;;3.20;1.05;;;;;;;;;;4949721;28;20249;-73
2022/06/21 11:27:42;;;;;;;4.13;1.30;;;;;;;;;;4936805;28;20229;-73
2022/06/21 11:30:54;;;;;;;3.25;1.10;;;;;;;;;;4952265;28;20222;-74
2022/06/21 11:33:29;;;;;;;2.47;1.10;;;;;;;;;;4942295;28;20226;-73
2022/06/21 11:36:15;;;;;;;3.60;1.33;;;;;;;;;;4953326;28;20621;-73
2022/06/21 11:38:49;;;;;;;3.03;1.45;;;;;;;;;;4949333;28;20242;-72
2022/06/21 11:44:36;;;;;;;4.43;1.30;;;;;;;;;;4968206;28;20225;-76
2022/06/21 11:47:29;;;;;;;5.82;1.35;;;;;;;;;;4953140;28;20238;-75
2022/06/21 11:49:59;;;;;;;4.95;1.40;;;;;;;;;;4953812;28;20846;-73
2022/06/21 11:52:48;;;;;;;4.50;1.60;;;;;;;;;;4967045;28;20234;-74
2022/06/21 11:55:18;;;;;;;3.85;1.20;;;;;;;;;;4964467;28;20229;-74
2022/06/21 11:57:57;;;;;;;4.28;1.40;;;;;;;;;;4953024;28;20226;-74
2022/06/21 12:00:32;;;;;;;4.57;1.25;;;;;;;;;;4937498;28;20578;-74
2022/06/21 12:03:02;;;;;;;2.50;1.20;;;;;;;;;;4952276;28;20295;-73
2022/06/21 12:05:36;;;;;;;3.97;1.30;;;;;;;;;;4952135;28;20692;-73
2022/06/21 12:08:29;;;;;;;5.50;1.52;;;;;;;;;;4966126;28;20252;-73
2022/06/21 12:11:15;;;;;;;4.45;1.23;;;;;;;;;;4951087;28;20241;-75
2022/06/21 12:14:05;;;;;;;5.00;1.20;;;;;;;;;;4951964;28;20240;-74
2022/06/21 12:16:44;;;;;;;2.90;1.08;;;;;;;;;;4969411;28;20614;-73
2022/06/21 12:19:34;;;;;;;5.10;1.23;;;;;;;;;;4965484;28;20229;-73
2022/06/21 12:22:33;;;;;;;3.70;1.23;;;;;;;;;;4935165;28;20730;-72
2022/06/21 12:25:01;;;;;;;5.20;1.27;;;;;;;;;;4966855;28;20224;-72
2022/06/21 12:27:27;;;;;;;3.15;1.00;;;;;;;;;;4950366;28;20239;-73
2022/06/21 12:30:13;;;;;;;3.53;0.90;;;;;;;;;;4969383;28;20249;-74
2022/06/21 12:32:38;;;;;;;3.08;1.23;;;;;;;;;;4934621;28;20260;-73
2022/06/21 12:35:07;;;;;;;3.58;1.15;;;;;;;;;;4952619;28;20612;-73
2022/06/21 12:37:43;;;;;;;3.10;1.10;;;;;;;;;;4951815;28;20256;-73
2022/06/21 12:40:29;;;;;;;2.90;1.08;;;;;;;;;;4935574;28;20279;-72
2022/06/21 12:43:22;;;;;;;2.63;1.23;;;;;;;;;;4953382;28;20594;-72
2022/06/21 12:46:15;;;;;;;1.40;0.80;;;;;;;;;;4922107;28;20222;-73
2022/06/21 12:49:06;;;;;;;4.22;1.00;;;;;;;;;;4966198;28;20253;-74
2022/06/21 12:51:37;;;;;;;2.38;0.80;;;;;;;;;;4926079;28;20231;-78
2022/06/21 12:54:08;;;;;;;2.08;0.95;;;;;;;;;;4969206;28;20723;-75
2022/06/21 12:56:54;;;;;;;3.80;1.00;;;;;;;;;;4967187;28;20249;-76
2022/06/21 12:59:41;;;;;;;2.70;0.80;;;;;;;;;;4966182;28;20230;-74
2022/06/21 13:02:19;;;;;;;3.70;1.17;;;;;;;;;;4967132;28;20234;-74
2022/06/21 13:05:32;;;;;;;2.92;0.98;;;;;;;;;;4967606;28;20292;-75
2022/06/21 13:08:25;;;;;;;4.75;0.90;;;;;;;;;;4947039;28;20237;-74
2022/06/21 13:11:15;;;;;;;5.88;1.25;;;;;;;;;;4966023;28;20276;-74
2022/06/21 13:14:03;;;;;;;1.77;0.85;;;;;;;;;;4962646;28;20231;-75
2022/06/21 13:16:57;;;;;;;3.53;0.98;;;;;;;;;;4938585;28;20234;-75
2022/06/21 13:19:44;;;;;;;2.38;0.90;;;;;;;;;;4965589;28;20357;-76
2022/06/21 13:22:13;;;;;;;2.75;0.73;;;;;;;;;;4966248;28;20570;-74
2022/06/21 13:25:13;;;;;;;1.92;0.95;;;;;;;;;;4950832;28;20276;-74
2022/06/21 13:27:45;;;;;;;2.75;1.00;;;;;;;;;;4967871;28;20226;-74
2022/06/21 13:30:28;;;;;;;2.70;1.00;;;;;;;;;;4951312;28;20238;-74
2022/06/21 13:33:12;;;;;;;1.40;0.75;;;;;;;;;;4937875;28;20754;-73
2022/06/21 13:35:46;;;;;;;2.90;0.80;;;;;;;;;;4951309;28;20245;-75
2022/06/21 13:38:19;;;;;;;2.55;0.85;;;;;;;;;;4965725;28;20245;-73
2022/06/21 13:40:48;;;;;;;3.25;1.00;;;;;;;;;;4956575;28;20229;-74
2022/06/21 13:43:39;;;;;;;1.42;1.00;;;;;;;;;;4952683;28;20587;-75
2022/06/21 13:46:14;;;;;;;3.00;1.05;;;;;;;;;;4942448;28;20343;-73
2022/06/21 13:48:44;;;;;;;2.30;0.90;;;;;;;;;;4969627;28;20268;-73
2022/06/21 13:51:13;;;;;;;3.33;1.00;;;;;;;;;;4954299;28;20228;-73
2022/06/21 13:53:41;;;;;;;3.05;1.20;;;;;;;;;;4966301;28;20602;-75
2022/06/21 13:57:35;;;;;;;2.45;1.00;;;;;;;;;;5052992;27;21398;-73
2022/06/21 14:00:04;;;;;;;2.85;1.00;;;;;;;;;;5037472;28;20226;-74
2022/06/21 14:02:51;;;;;;;3.10;1.02;;;;;;;;;;5025872;28;20216;-77
2022/06/21 14:05:16;;;;;;;13.05;1.77;;;;;;;;;;5022888;28;20241;-74
2022/06/21 14:08:00;;;;;;;3.63;1.00;;;;;;;;;;5042651;28;20303;-75
2022/06/21 14:10:27;;;;;;;1.55;0.90;;;;;;;;;;5032448;28;20274;-75
2022/06/21 14:13:11;;;;;;;1.20;0.85;;;;;;;;;;5044830;28;20272;-77
2022/06/21 14:15:59;;;;;;;2.78;0.90;;;;;;;;;;5041402;28;20227;-76
2022/06/21 14:18:47;;;;;;;3.15;0.82;;;;;;;;;;5003266;28;20248;-75
2022/06/21 14:21:30;;;;;;;3.13;0.77;;;;;;;;;;5027963;28;20314;-74
2022/06/21 14:24:01;;;;;;;2.05;0.88;;;;;;;;;;5041582;28;20226;-74
2022/06/21 14:26:41;;;;;;;1.65;0.77;;;;;;;;;;5023683;28;20234;-73
2022/06/21 14:29:27;;;;;;;1.83;0.75;;;;;;;;;;5002504;28;20643;-74
2022/06/21 14:32:14;;;;;;;2.95;1.00;;;;;;;;;;5032911;28;20892;-76
2022/06/21 14:34:53;;;;;;;1.65;0.82;;;;;;;;;;5050693;28;20234;-72
2022/06/21 14:37:39;;;;;;;3.33;0.80;;;;;;;;;;5026678;28;20760;-72
2022/06/21 14:40:08;;;;;;;2.20;0.68;;;;;;;;;;5055697;28;20225;-73
2022/06/21 14:42:38;;;;;;;1.17;0.70;;;;;;;;;;5049871;28;20222;-74
2022/06/21 14:45:07;;;;;;;3.40;1.00;;;;;;;;;;5048498;28;20224;-73
2022/06/21 14:47:56;;;;;;;4.40;1.00;;;;;;;;;;5048379;28;20241;-74
2022/06/21 14:50:43;;;;;;;1.70;0.88;;;;;;;;;;5028933;28;20618;-74
2022/06/21 14:53:45;;;;;;;2.13;0.98;;;;;;;;;;5037145;28;20222;-73
2022/06/21 14:56:14;;;;;;;2.00;0.70;;;;;;;;;;5021431;28;20596;-74
2022/06/21 14:59:03;;;;;;;3.13;0.95;;;;;;;;;;5042845;28;20299;-73
2022/06/21 15:01:34;;;;;;;3.00;0.80;;;;;;;;;;5056669;28;20219;-73
2022/06/21 15:04:26;;;;;;;3.53;0.90;;;;;;;;;;5060118;28;20376;-74
2022/06/21 15:07:11;;;;;;;3.20;0.90;;;;;;;;;;5014039;28;20612;-74
2022/06/21 15:09:43;;;;;;;2.05;0.90;;;;;;;;;;5041501;28;20219;-74
2022/06/21 15:12:14;;;;;;;2.67;0.90;;;;;;;;;;5021735;28;20223;-75
2022/06/21 15:14:48;;;;;;;2.80;1.00;;;;;;;;;;5031432;28;20312;-78
2022/06/21 15:17:34;;;;;;;2.40;0.70;;;;;;;;;;5039832;28;20721;-75
2022/06/21 15:20:21;;;;;;;2.10;1.10;;;;;;;;;;5048686;28;20776;-75
2022/06/21 15:23:13;;;;;;;4.78;1.00;;;;;;;;;;5029468;28;20231;-75
2022/06/21 15:25:50;;;;;;;1.92;0.90;;;;;;;;;;5016330;28;20224;-75
2022/06/21 15:28:31;;;;;;;2.97;1.00;;;;;;;;;;5037553;28;20890;-75
2022/06/21 15:31:07;;;;;;;2.22;1.00;;;;;;;;;;5023267;28;20276;-76
2022/06/21 15:33:44;;;;;;;2.40;0.98;;;;;;;;;;5024781;28;20220;-75
2022/06/21 15:36:25;;;;;;;3.65;1.02;;;;;;;;;;5018771;28;20338;-73
2022/06/21 15:39:32;;;;;;;2.10;1.00;;;;;;;;;;5036972;28;20242;-75
2022/06/21 15:42:10;;;;;;;2.15;1.05;;;;;;;;;;5039218;28;20684;-77
2022/06/21 15:45:00;;;;;;;2.42;1.10;;;;;;;;;;5046693;28;20660;-77
2022/06/21 15:50:42;;;;;;;2.05;0.80;;;;;;;;;;5035668;28;20219;-75
2022/06/21 15:53:26;;;;;;;2.78;0.93;;;;;;;;;;5027812;28;21661;-75
2022/06/21 15:56:32;;;;;;;3.00;0.90;;;;;;;;;;5040784;28;20228;-75
2022/06/21 15:59:36;;;;;;;2.08;0.95;;;;;;;;;;5004500;28;20227;-74
2022/06/21 16:02:20;;;;;;;2.78;1.00;;;;;;;;;;5034041;28;20249;-75
2022/06/21 16:05:01;;;;;;;3.03;1.00;;;;;;;;;;4997432;28;20231;-75